Time;durP1;ratioP1;P1;durP2;ratioP2;P2;SDS_P1;SDS_P2;PMS_P1;PMS_P2;Temp;Humidity;BMP_temperature;BMP_pressure;BME280_temperature;BME280_humidity;BME280_pressure;Samples;Min_cycle;Max_cycle;Signal;HPM_P1;HPM_P2
2022/01/17 00:00:14;;;;;;;19.92;9.68;;;6.10;99.90;;;;;;5045851;28;20044;-57
2022/01/17 00:02:40;;;;;;;17.63;8.60;;;6.10;99.90;;;;;;5046847;28;20075;-57
2022/01/17 00:05:07;;;;;;;;;;;6.10;99.90;;;;;;5047033;28;20029;-58
2022/01/17 00:07:33;;;;;;;14.80;7.65;;;6.10;99.90;;;;;;5044833;28;19965;-58
2022/01/17 00:09:58;;;;;;;;;;;6.10;99.90;;;;;;5045493;28;20032;-58
2022/01/17 00:12:24;;;;;;;13.95;7.95;;;6.10;99.90;;;;;;5046682;28;20281;-58
2022/01/17 00:14:50;;;;;;;;;;;6.10;99.90;;;;;;5046022;28;20067;-58
2022/01/17 00:19:44;;;;;;;16.15;7.65;;;6.20;99.90;;;;;;5046927;28;20025;-57
2022/01/17 00:22:11;;;;;;;18.80;8.18;;;6.20;99.90;;;;;;5044079;28;20401;-57
2022/01/17 00:24:37;;;;;;;17.30;7.90;;;6.20;99.90;;;;;;5045703;28;20120;-58
2022/01/17 00:27:03;;;;;;;12.20;7.82;;;6.20;99.90;;;;;;5045502;28;20155;-57
2022/01/17 00:29:29;;;;;;;13.52;6.95;;;6.20;99.90;;;;;;5047321;28;20036;-57
2022/01/17 00:31:55;;;;;;;13.85;7.20;;;6.20;99.90;;;;;;5042693;28;20400;-57
2022/01/17 00:34:21;;;;;;;12.98;6.35;;;6.20;99.90;;;;;;5045949;28;20093;-57
2022/01/17 00:36:47;;;;;;;18.10;6.72;;;6.20;99.90;;;;;;5046290;28;20021;-59
2022/01/17 00:39:12;;;;;;;13.40;6.57;;;6.30;99.90;;;;;;5042060;28;20033;-58
2022/01/17 00:41:38;;;;;;;11.77;6.07;;;6.20;99.90;;;;;;5046089;28;20032;-59
2022/01/17 00:44:04;;;;;;;13.63;6.10;;;6.20;99.90;;;;;;5045531;28;20058;-57
2022/01/17 00:46:30;;;;;;;;;;;6.20;99.90;;;;;;5046502;28;20025;-58
2022/01/17 00:48:55;;;;;;;14.32;8.18;;;6.30;99.90;;;;;;5045879;28;19912;-57
2022/01/17 00:51:21;;;;;;;13.32;7.25;;;6.30;99.90;;;;;;5046848;28;20024;-58
2022/01/17 00:53:48;;;;;;;16.25;6.40;;;6.30;99.90;;;;;;5043695;28;20033;-57
2022/01/17 00:56:14;;;;;;;12.75;6.65;;;6.20;99.90;;;;;;5045398;28;20650;-57
2022/01/17 00:58:39;;;;;;;;;;;6.30;99.90;;;;;;5046633;28;20029;-58
2022/01/17 01:01:05;;;;;;;21.92;7.97;;;6.30;99.90;;;;;;5044317;28;19916;-57
2022/01/17 01:03:31;;;;;;;13.43;6.15;;;6.30;99.90;;;;;;5043230;28;20021;-58
2022/01/17 01:05:56;;;;;;;12.10;5.93;;;6.30;99.90;;;;;;5044791;28;20115;-57
2022/01/17 01:08:22;;;;;;;11.18;5.28;;;6.30;99.90;;;;;;5043618;28;20021;-57
2022/01/17 01:10:47;;;;;;;13.10;6.32;;;6.30;99.90;;;;;;5045466;28;20119;-57
2022/01/17 01:13:13;;;;;;;13.70;6.57;;;6.30;99.90;;;;;;5046012;28;20068;-57
2022/01/17 01:18:15;;;;;;;13.98;7.00;;;6.30;99.90;;;;;;5045385;28;20160;-58
2022/01/17 01:28:41;;;;;;;11.88;4.88;;;6.30;99.90;;;;;;5044691;28;20107;-57
2022/01/17 01:31:13;;;;;;;7.38;3.65;;;6.30;99.90;;;;;;5043522;28;20049;-58
2022/01/17 01:33:43;;;;;;;9.30;3.78;;;6.30;99.90;;;;;;5044501;28;20041;-57
2022/01/17 01:36:17;;;;;;;8.77;3.30;;;6.30;99.90;;;;;;5045574;28;20025;-58
2022/01/17 01:38:43;;;;;;;9.30;3.78;;;6.30;99.90;;;;;;5044814;28;20083;-57
2022/01/17 01:41:09;;;;;;;9.38;3.03;;;6.30;99.90;;;;;;5043118;28;20029;-57
2022/01/17 01:43:34;;;;;;;12.52;4.80;;;6.20;99.90;;;;;;5044171;28;20409;-58
2022/01/17 01:46:02;;;;;;;7.07;2.63;;;6.20;99.90;;;;;;5044114;28;20467;-59
2022/01/17 01:48:32;;;;;;;8.32;3.72;;;6.20;99.90;;;;;;5046402;28;20040;-58
2022/01/17 01:50:58;;;;;;;8.10;2.20;;;6.20;99.90;;;;;;5044567;28;20235;-59
2022/01/17 01:53:25;;;;;;;7.18;2.70;;;6.20;99.90;;;;;;5044564;28;20112;-57
2022/01/17 01:55:52;;;;;;;7.80;2.92;;;6.20;99.90;;;;;;5044131;28;20033;-58
2022/01/17 01:58:20;;;;;;;10.48;3.38;;;6.20;99.90;;;;;;5043602;28;20168;-57
2022/01/17 02:00:46;;;;;;;6.97;3.65;;;6.20;99.90;;;;;;5044583;28;20135;-58
2022/01/17 02:03:12;;;;;;;7.57;2.92;;;6.20;99.90;;;;;;5043368;28;20097;-57
2022/01/17 02:05:37;;;;;;;11.50;2.35;;;6.20;99.90;;;;;;5044969;28;20623;-56
2022/01/17 02:08:05;;;;;;;13.35;1.80;;;6.10;99.90;;;;;;5044505;28;20029;-56
2022/01/17 02:10:31;;;;;;;6.35;1.77;;;6.20;99.90;;;;;;5042979;28;20029;-58
2022/01/17 02:12:57;;;;;;;;;;;6.10;99.90;;;;;;5043803;28;20049;-58
2022/01/17 02:15:22;;;;;;;7.65;1.35;;;6.10;99.90;;;;;;5042452;28;19923;-57
2022/01/17 02:17:55;;;;;;;4.78;1.20;;;6.20;99.90;;;;;;5043381;28;20327;-57
2022/01/17 02:20:34;;;;;;;6.85;1.52;;;6.10;99.90;;;;;;5042323;28;20398;-58
2022/01/17 02:23:04;;;;;;;9.48;1.17;;;6.10;99.90;;;;;;5041624;28;20074;-58
2022/01/17 02:25:30;;;;;;;3.60;1.08;;;6.10;99.90;;;;;;5043876;28;20553;-57
2022/01/17 02:27:56;;;;;;;5.47;1.08;;;6.10;99.90;;;;;;5042315;28;20473;-57
2022/01/17 02:30:23;;;;;;;7.53;1.50;;;6.10;99.90;;;;;;5043423;28;20087;-58
2022/01/17 02:32:49;;;;;;;7.05;1.08;;;6.00;99.90;;;;;;5040564;28;22133;-57
2022/01/17 02:35:23;;;;;;;6.63;1.50;;;6.00;99.90;;;;;;5043833;28;20033;-57
2022/01/17 02:37:49;;;;;;;8.18;2.15;;;6.00;99.90;;;;;;5043751;28;20218;-58
2022/01/17 02:40:16;;;;;;;7.82;1.63;;;6.00;99.90;;;;;;5043876;28;20025;-57
2022/01/17 02:42:43;;;;;;;12.02;3.15;;;6.00;99.90;;;;;;5042230;28;20071;-57
2022/01/17 02:47:54;;;;;;;2.58;0.73;;;5.90;99.90;;;;;;5044718;28;20086;-57
2022/01/17 02:50:20;;;;;;;7.90;1.25;;;5.80;99.90;;;;;;5042588;28;20313;-58
2022/01/17 02:52:46;;;;;;;6.28;1.58;;;5.80;99.90;;;;;;5043630;28;20025;-58
2022/01/17 02:55:12;;;;;;;7.15;1.42;;;5.80;99.90;;;;;;5042598;28;20033;-58
2022/01/17 02:57:37;;;;;;;7.60;1.55;;;5.80;99.90;;;;;;5039321;28;20045;-58
2022/01/17 03:00:04;;;;;;;8.77;1.05;;;5.80;99.90;;;;;;5039742;28;20065;-58
2022/01/17 03:02:30;;;;;;;11.75;1.50;;;5.70;99.90;;;;;;5044592;28;20169;-57
2022/01/17 03:04:55;;;;;;;8.63;1.20;;;5.70;99.90;;;;;;5044537;28;20070;-58
2022/01/17 03:07:21;;;;;;;9.23;1.33;;;5.80;99.90;;;;;;5042011;28;20067;-57
2022/01/17 03:10:01;;;;;;;;;;;5.70;99.90;;;;;;5044502;28;20478;-57
2022/01/17 03:12:27;;;;;;;6.63;1.10;;;5.80;99.90;;;;;;5043683;28;19960;-57
2022/01/17 03:14:53;;;;;;;14.23;2.13;;;5.80;99.90;;;;;;5042868;28;20440;-59
2022/01/17 03:17:18;;;;;;;;;;;5.80;99.90;;;;;;5048272;28;20032;-57
2022/01/17 03:19:43;;;;;;;6.55;1.58;;;5.80;99.90;;;;;;5048439;28;19912;-57
2022/01/17 03:22:09;;;;;;;9.50;1.42;;;5.80;99.90;;;;;;5046290;28;20779;-57
2022/01/17 03:24:34;;;;;;;14.25;1.75;;;5.80;99.90;;;;;;5047589;28;20040;-58
2022/01/17 03:27:00;;;;;;;11.00;1.17;;;5.80;99.90;;;;;;5046322;28;20031;-57
2022/01/17 03:29:25;;;;;;;;;;;5.80;99.90;;;;;;5048205;28;20111;-58
2022/01/17 03:31:51;;;;;;;8.27;1.20;;;5.80;99.90;;;;;;5044287;28;19913;-56
2022/01/17 03:34:16;;;;;;;7.00;1.52;;;5.80;99.90;;;;;;5046964;28;20542;-57
2022/01/17 03:36:44;;;;;;;9.18;1.75;;;5.80;99.90;;;;;;5047313;28;20644;-57
2022/01/17 03:39:10;;;;;;;11.43;1.80;;;5.80;99.90;;;;;;5045897;28;20082;-57
2022/01/17 03:41:35;;;;;;;;;;;5.80;99.90;;;;;;5046956;28;20115;-57
2022/01/17 03:44:01;;;;;;;8.98;1.65;;;5.80;99.90;;;;;;5046865;28;20344;-58
2022/01/17 03:46:26;;;;;;;13.98;2.00;;;5.80;99.90;;;;;;5047551;28;20457;-57
2022/01/17 03:48:52;;;;;;;6.95;1.55;;;5.80;99.90;;;;;;5044769;28;20029;-58
2022/01/17 03:51:18;;;;;;;10.38;1.10;;;5.80;99.90;;;;;;5047320;28;20029;-58
2022/01/17 03:53:43;;;;;;;4.72;1.45;;;5.80;99.90;;;;;;5046304;28;20029;-58
2022/01/17 03:56:09;;;;;;;6.35;1.17;;;5.90;99.90;;;;;;5046759;28;20024;-58
2022/01/17 03:58:35;;;;;;;9.75;1.20;;;5.90;99.90;;;;;;5046966;28;20033;-59
2022/01/17 04:01:02;;;;;;;7.18;1.35;;;5.80;99.90;;;;;;5043803;28;20501;-58
2022/01/17 04:03:27;;;;;;;4.05;1.20;;;5.80;99.90;;;;;;5044533;28;20083;-58
2022/01/17 04:05:53;;;;;;;5.88;1.50;;;5.80;99.90;;;;;;5046124;28;20021;-58
2022/01/17 04:08:19;;;;;;;7.20;1.60;;;5.80;99.90;;;;;;5047497;28;20024;-58
2022/01/17 04:10:45;;;;;;;11.57;2.33;;;5.80;99.90;;;;;;5046146;28;20029;-58
2022/01/17 04:13:11;;;;;;;4.30;1.25;;;5.90;99.90;;;;;;5046297;28;20139;-57
2022/01/17 04:15:37;;;;;;;9.82;1.42;;;5.80;99.90;;;;;;5046396;28;20029;-58
2022/01/17 04:18:08;;;;;;;6.90;1.48;;;5.80;99.90;;;;;;5047951;28;20029;-58
2022/01/17 04:20:34;;;;;;;13.27;2.03;;;5.90;99.90;;;;;;5044062;28;20036;-58
2022/01/17 04:23:06;;;;;;;10.38;1.17;;;5.80;99.90;;;;;;5044758;28;20345;-57
2022/01/17 04:25:33;;;;;;;9.43;1.55;;;5.90;99.90;;;;;;5046088;28;20025;-57
2022/01/17 04:27:59;;;;;;;11.10;1.95;;;5.90;99.90;;;;;;5045824;28;20025;-58
2022/01/17 04:30:25;;;;;;;13.65;1.48;;;5.80;99.90;;;;;;5046221;28;20402;-58
2022/01/17 04:32:51;;;;;;;11.25;1.63;;;5.90;99.90;;;;;;5046191;28;20052;-57
2022/01/17 04:35:20;;;;;;;6.57;1.23;;;5.90;99.90;;;;;;5044783;28;20055;-57
2022/01/17 04:37:51;;;;;;;13.75;1.63;;;5.90;99.90;;;;;;5045915;28;20029;-57
2022/01/17 04:40:17;;;;;;;11.80;1.73;;;5.90;99.90;;;;;;5044989;28;20025;-58
2022/01/17 04:42:45;;;;;;;;;;;5.90;99.90;;;;;;5047750;28;20032;-58
2022/01/17 04:45:13;;;;;;;14.70;1.45;;;5.90;99.90;;;;;;5045554;28;19913;-57
2022/01/17 04:47:41;;;;;;;6.78;1.55;;;5.90;99.90;;;;;;5046285;28;20110;-57
2022/01/17 04:50:10;;;;;;;10.10;1.60;;;5.90;99.90;;;;;;5046533;28;20213;-58
2022/01/17 04:52:36;;;;;;;5.35;1.20;;;5.90;99.90;;;;;;5044519;28;20466;-58
2022/01/17 04:55:05;;;;;;;10.20;1.60;;;5.90;99.90;;;;;;5045286;28;20060;-58
2022/01/17 04:57:30;;;;;;;15.32;1.55;;;5.90;99.90;;;;;;5045779;28;20037;-57
2022/01/17 04:59:56;;;;;;;5.80;1.30;;;5.90;99.90;;;;;;5043199;28;20082;-58
2022/01/17 05:02:22;;;;;;;14.52;1.65;;;5.90;99.90;;;;;;5045112;28;20493;-56
2022/01/17 05:04:48;;;;;;;4.85;1.05;;;5.90;99.90;;;;;;5045369;28;20024;-58
2022/01/17 05:07:14;;;;;;;;;;;5.90;99.90;;;;;;5046503;28;20036;-58
2022/01/17 05:09:42;;;;;;;11.68;1.30;;;5.90;99.90;;;;;;5043286;28;19931;-57
2022/01/17 05:12:09;;;;;;;9.77;1.98;;;5.90;99.90;;;;;;5045026;28;20127;-57
2022/01/17 05:14:35;;;;;;;9.57;1.38;;;5.90;99.90;;;;;;5043197;28;20635;-57
2022/01/17 05:17:21;;;;;;;10.15;2.13;;;5.90;99.90;;;;;;5043166;28;20032;-58
2022/01/17 05:19:49;;;;;;;17.30;2.38;;;5.90;99.90;;;;;;5043870;28;20036;-58
2022/01/17 05:22:16;;;;;;;12.70;1.65;;;5.90;99.90;;;;;;5044384;28;20032;-58
2022/01/17 05:24:41;;;;;;;10.60;2.45;;;5.90;99.90;;;;;;5046190;28;20021;-57
2022/01/17 05:27:07;;;;;;;8.35;0.90;;;5.90;99.90;;;;;;5041702;28;21495;-57
2022/01/17 05:29:32;;;;;;;8.48;1.95;;;5.90;99.90;;;;;;5040152;28;20034;-57
2022/01/17 05:31:58;;;;;;;8.65;1.27;;;5.90;99.90;;;;;;5043884;28;20036;-57
2022/01/17 05:34:23;;;;;;;9.18;1.48;;;5.90;99.90;;;;;;5045373;28;20604;-58
2022/01/17 05:36:49;;;;;;;4.28;1.38;;;5.90;99.90;;;;;;5045436;28;20025;-57
2022/01/17 05:39:15;;;;;;;14.35;1.52;;;5.90;99.90;;;;;;5045497;28;20025;-56
2022/01/17 05:41:41;;;;;;;14.40;2.40;;;5.90;99.90;;;;;;5043933;28;20081;-58
2022/01/17 05:44:07;;;;;;;9.77;1.95;;;5.90;99.90;;;;;;5044562;28;20028;-57
2022/01/17 05:46:32;;;;;;;5.93;1.02;;;5.90;99.90;;;;;;5042253;28;20132;-58
2022/01/17 05:48:58;;;;;;;13.57;2.70;;;5.90;99.90;;;;;;5045577;28;20103;-58
2022/01/17 05:51:23;;;;;;;18.50;4.97;;;5.90;99.90;;;;;;5044642;28;20311;-58
2022/01/17 05:53:49;;;;;;;7.60;1.20;;;5.90;99.90;;;;;;5043865;28;20474;-56
2022/01/17 05:56:14;;;;;;;11.27;1.75;;;5.90;99.90;;;;;;5044195;28;20084;-56
2022/01/17 05:58:40;;;;;;;;;;;5.90;99.90;;;;;;5044746;28;20028;-57
2022/01/17 06:01:06;;;;;;;10.75;1.52;;;5.90;99.90;;;;;;5044007;28;20003;-58
2022/01/17 06:03:32;;;;;;;13.88;1.85;;;5.90;99.90;;;;;;5042568;28;20079;-58
2022/01/17 06:05:58;;;;;;;6.68;1.23;;;5.90;99.90;;;;;;5043326;28;20385;-56
2022/01/17 06:09:27;;;;;;;5.88;1.67;;;5.90;99.90;;;;;;5086992;27;20315;-57
2022/01/17 06:11:53;;;;;;;14.93;2.33;;;5.90;99.90;;;;;;5090747;28;20028;-58
2022/01/17 06:14:18;;;;;;;4.88;1.95;;;5.90;99.90;;;;;;5088721;28;20107;-59
2022/01/17 06:16:45;;;;;;;11.20;1.95;;;5.90;99.90;;;;;;5088632;28;20027;-58
2022/01/17 06:19:11;;;;;;;9.27;1.75;;;5.80;99.90;;;;;;5088525;28;20039;-55
2022/01/17 06:21:37;;;;;;;9.57;1.40;;;5.80;99.90;;;;;;5082734;28;20845;-55
2022/01/17 06:24:05;;;;;;;6.55;1.50;;;5.90;99.90;;;;;;5091098;28;20123;-55
2022/01/17 06:26:32;;;;;;;11.02;2.28;;;5.90;99.90;;;;;;5091707;28;20258;-57
2022/01/17 06:28:58;;;;;;;14.57;3.13;;;5.80;99.90;;;;;;5090653;28;20468;-59
2022/01/17 06:31:23;;;;;;;11.50;1.67;;;5.90;99.90;;;;;;5094038;28;20028;-58
2022/01/17 06:33:49;;;;;;;19.98;2.28;;;5.80;99.90;;;;;;5090342;28;20028;-59
2022/01/17 06:36:14;;;;;;;6.05;1.33;;;5.90;99.90;;;;;;5094682;28;20045;-59
2022/01/17 06:38:40;;;;;;;10.88;2.20;;;5.80;99.90;;;;;;5091303;28;20055;-58
2022/01/17 06:41:05;;;;;;;5.45;1.35;;;5.80;99.90;;;;;;5090844;28;20480;-57
2022/01/17 06:43:31;;;;;;;8.55;2.85;;;5.90;99.90;;;;;;5099436;28;20530;-57
2022/01/17 06:45:56;;;;;;;13.98;1.75;;;5.80;99.90;;;;;;5091844;28;20036;-58
2022/01/17 06:48:22;;;;;;;14.38;1.77;;;5.80;99.90;;;;;;5100338;28;20115;-55
2022/01/17 06:50:47;;;;;;;8.02;1.30;;;5.80;99.90;;;;;;5097082;28;20237;-58
2022/01/17 06:53:13;;;;;;;5.63;1.45;;;5.80;99.90;;;;;;5086538;28;20081;-58
2022/01/17 06:55:38;;;;;;;12.23;1.85;;;5.80;99.90;;;;;;5097824;28;20438;-57
2022/01/17 06:58:04;;;;;;;15.88;2.25;;;5.80;99.90;;;;;;5094986;28;20039;-57
2022/01/17 07:00:29;;;;;;;13.75;2.30;;;5.90;99.90;;;;;;5092254;28;20031;-57
2022/01/17 07:02:55;;;;;;;10.05;1.88;;;5.90;99.90;;;;;;5091007;28;20438;-57
2022/01/17 07:05:20;;;;;;;11.10;1.95;;;5.90;99.90;;;;;;5088151;28;20506;-55
2022/01/17 07:07:46;;;;;;;8.57;1.55;;;5.80;99.90;;;;;;5081756;28;22190;-56
2022/01/17 07:10:12;;;;;;;10.43;2.00;;;5.90;99.90;;;;;;5091803;28;20027;-56
2022/01/17 07:12:37;;;;;;;13.40;2.60;;;5.80;99.90;;;;;;5088913;28;20028;-55
2022/01/17 07:15:06;;;;;;;;;;;5.90;99.90;;;;;;5077432;28;20508;-57
2022/01/17 07:17:32;;;;;;;13.10;1.48;;;5.90;99.90;;;;;;5085015;28;19954;-56
2022/01/17 07:19:58;;;;;;;15.18;1.50;;;5.90;99.90;;;;;;5079265;28;20395;-55
2022/01/17 07:22:23;;;;;;;9.50;1.35;;;5.90;99.90;;;;;;5080069;28;20031;-57
2022/01/17 07:24:49;;;;;;;4.82;1.20;;;5.90;99.90;;;;;;5069566;28;20058;-55
2022/01/17 07:27:15;;;;;;;8.20;1.35;;;5.90;99.90;;;;;;5078087;28;20036;-56
2022/01/17 07:29:42;;;;;;;;;;;5.90;99.90;;;;;;5080509;28;20579;-56
2022/01/17 07:32:08;;;;;;;;;;;5.80;99.90;;;;;;5082319;28;20335;-55
2022/01/17 07:34:33;;;;;;;7.63;1.75;;;5.80;99.90;;;;;;5074879;28;19994;-55
2022/01/17 07:36:59;;;;;;;8.27;1.45;;;5.90;99.90;;;;;;5077663;28;20166;-56
2022/01/17 07:39:26;;;;;;;10.40;1.73;;;5.80;99.90;;;;;;5070052;28;20393;-56
2022/01/17 07:41:51;;;;;;;8.00;1.35;;;5.80;99.90;;;;;;5073774;28;20028;-57
2022/01/17 07:44:21;;;;;;;10.88;1.70;;;5.80;99.90;;;;;;5072194;28;20551;-57
2022/01/17 07:46:54;;;;;;;18.58;2.63;;;5.80;99.90;;;;;;5072976;28;20036;-57
2022/01/17 07:49:22;;;;;;;7.10;1.77;;;5.80;99.90;;;;;;5070833;28;20051;-57
2022/01/17 07:51:50;;;;;;;19.40;2.30;;;5.80;99.90;;;;;;5079154;28;20024;-55
2022/01/17 07:54:17;;;;;;;8.63;1.38;;;5.80;99.90;;;;;;5072369;28;20064;-56
2022/01/17 07:56:44;;;;;;;5.05;1.02;;;5.80;99.90;;;;;;5069729;28;20073;-56
2022/01/17 07:59:10;;;;;;;;;;;5.80;99.90;;;;;;5069835;28;20162;-56
2022/01/17 08:01:37;;;;;;;4.40;1.30;;;5.80;99.90;;;;;;5079557;28;19916;-56
2022/01/17 08:04:04;;;;;;;13.10;3.45;;;5.90;99.90;;;;;;5070291;28;20029;-57
2022/01/17 08:06:30;;;;;;;3.97;0.82;;;5.90;99.90;;;;;;5077374;28;20036;-57
2022/01/17 08:08:57;;;;;;;;;;;5.80;99.90;;;;;;5080603;28;20062;-58
2022/01/17 08:11:22;;;;;;;6.90;1.30;;;5.80;99.90;;;;;;5076019;28;19917;-59
2022/01/17 08:13:48;;;;;;;9.90;1.38;;;5.90;99.90;;;;;;5076466;28;20538;-55
2022/01/17 08:16:15;;;;;;;6.75;1.25;;;5.90;99.90;;;;;;5083283;28;20024;-56
2022/01/17 08:18:41;;;;;;;17.08;5.15;;;5.90;99.90;;;;;;5076301;28;20109;-56
2022/01/17 08:21:07;;;;;;;10.35;1.48;;;5.90;99.90;;;;;;5081742;28;20560;-57
2022/01/17 08:23:32;;;;;;;8.32;1.63;;;5.90;99.90;;;;;;5078107;28;20056;-58
2022/01/17 08:25:58;;;;;;;7.43;1.10;;;5.90;99.90;;;;;;5074288;28;20498;-57
2022/01/17 08:28:24;;;;;;;6.95;2.92;;;5.90;99.90;;;;;;5075482;28;20466;-58
2022/01/17 08:30:49;;;;;;;12.73;2.25;;;5.90;99.90;;;;;;5071130;28;20036;-57
2022/01/17 08:33:15;;;;;;;3.67;0.88;;;5.80;99.90;;;;;;5074522;28;20020;-56
2022/01/17 08:35:40;;;;;;;6.63;1.48;;;5.80;99.90;;;;;;5074099;28;20331;-58
2022/01/17 08:38:06;;;;;;;7.25;2.42;;;5.90;99.90;;;;;;5078683;28;20123;-57
2022/01/17 08:40:32;;;;;;;5.45;1.52;;;5.80;99.90;;;;;;5066965;28;20901;-57
2022/01/17 08:42:57;;;;;;;5.13;1.33;;;5.80;99.90;;;;;;5075787;28;20031;-57
2022/01/17 08:45:24;;;;;;;10.50;2.08;;;5.80;99.90;;;;;;5074859;28;20119;-57
2022/01/17 08:47:51;;;;;;;18.17;1.90;;;5.80;99.90;;;;;;5070975;28;20068;-57
2022/01/17 08:50:20;;;;;;;12.93;3.28;;;5.80;99.90;;;;;;5076622;28;20025;-57
2022/01/17 08:52:47;;;;;;;8.70;1.35;;;5.80;99.90;;;;;;5075624;28;20023;-58
2022/01/17 08:55:13;;;;;;;11.55;2.05;;;5.80;99.90;;;;;;5076898;28;20035;-57
2022/01/17 08:57:39;;;;;;;11.32;1.77;;;5.80;99.90;;;;;;5072244;28;20024;-56
2022/01/17 09:00:09;;;;;;;4.65;1.95;;;5.80;99.90;;;;;;5072271;28;20047;-57
2022/01/17 09:02:35;;;;;;;11.98;1.38;;;5.90;99.90;;;;;;5070625;28;20111;-55
2022/01/17 09:05:00;;;;;;;6.88;1.40;;;5.80;99.90;;;;;;5079051;28;20425;-57
2022/01/17 09:07:26;;;;;;;4.20;1.77;;;5.90;99.90;;;;;;5075208;28;20040;-58
2022/01/17 09:09:51;;;;;;;5.63;1.17;;;5.90;99.90;;;;;;5071014;28;20028;-57
2022/01/17 09:12:17;;;;;;;9.18;2.50;;;5.80;99.90;;;;;;5079429;28;20028;-56
2022/01/17 09:14:42;;;;;;;11.07;1.60;;;5.90;99.90;;;;;;5073467;28;20071;-57
2022/01/17 09:17:10;;;;;;;5.90;1.02;;;5.90;99.90;;;;;;5069429;28;20029;-56
2022/01/17 09:19:37;;;;;;;11.55;1.88;;;5.90;99.90;;;;;;5075233;28;20020;-57
2022/01/17 09:22:05;;;;;;;7.13;1.33;;;5.90;99.90;;;;;;5072535;28;20127;-58
2022/01/17 09:24:31;;;;;;;10.07;2.10;;;5.90;99.90;;;;;;5072476;28;20309;-57
2022/01/17 09:26:56;;;;;;;8.25;1.17;;;5.90;99.90;;;;;;5073647;28;20020;-58
2022/01/17 09:29:22;;;;;;;;;;;5.90;99.90;;;;;;5071866;28;20040;-57
2022/01/17 09:31:47;;;;;;;4.00;1.15;;;5.90;99.90;;;;;;5069253;28;20231;-58
2022/01/17 09:34:13;;;;;;;9.35;1.67;;;6.00;99.90;;;;;;5073215;28;20028;-58
2022/01/17 09:36:39;;;;;;;7.35;1.95;;;6.00;99.90;;;;;;5069505;28;20059;-59
2022/01/17 09:39:06;;;;;;;;;;;6.00;99.90;;;;;;5073210;28;20087;-58
2022/01/17 09:41:32;;;;;;;8.15;1.35;;;6.00;99.90;;;;;;5077168;28;20364;-58
2022/01/17 09:43:58;;;;;;;7.18;1.27;;;6.00;99.90;;;;;;5068313;28;20043;-57
2022/01/17 09:46:27;;;;;;;3.20;1.38;;;6.00;99.90;;;;;;5067341;28;20105;-57
2022/01/17 09:49:01;;;;;;;4.65;1.70;;;6.00;99.90;;;;;;5070901;28;20097;-57
2022/01/17 09:52:02;;;;;;;8.45;2.15;;;6.00;99.90;;;;;;5068767;28;20028;-57
2022/01/17 09:54:29;;;;;;;5.70;1.92;;;6.00;99.90;;;;;;5075600;28;20036;-57
2022/01/17 09:56:56;;;;;;;8.52;2.15;;;6.10;99.90;;;;;;5074199;28;20032;-57
2022/01/17 09:59:22;;;;;;;14.82;5.40;;;6.10;99.90;;;;;;5071614;28;20028;-57
2022/01/17 10:01:48;;;;;;;5.65;1.95;;;6.10;99.90;;;;;;5068555;28;20584;-56
2022/01/17 10:04:16;;;;;;;11.23;2.10;;;6.20;99.90;;;;;;5062043;28;20112;-57
2022/01/17 10:06:43;;;;;;;8.43;2.33;;;6.20;99.90;;;;;;5071904;28;20036;-57
2022/01/17 10:09:10;;;;;;;14.07;2.72;;;6.20;99.90;;;;;;5072060;28;20178;-57
2022/01/17 10:11:35;;;;;;;7.43;2.15;;;6.30;99.90;;;;;;5082757;22;20034;-60
2022/01/17 10:14:01;;;;;;;5.57;1.63;;;6.30;99.90;;;;;;4983992;28;20030;-62
2022/01/17 10:16:29;;;;;;;2.92;2.13;;;6.30;99.90;;;;;;4996407;28;20045;-62
2022/01/17 10:18:59;;;;;;;11.80;2.10;;;6.40;99.90;;;;;;4986858;28;20033;-62
2022/01/17 10:21:34;;;;;;;5.78;1.73;;;6.40;99.90;;;;;;4987648;28;20037;-62
2022/01/17 10:35:21;;;;;;;7.10;2.28;;;6.60;99.90;;;;;;4988870;28;20044;-61
2022/01/17 10:37:58;;;;;;;5.95;1.92;;;6.70;99.90;;;;;;4987172;28;20095;-61
2022/01/17 10:40:24;;;;;;;;;;;6.80;99.90;;;;;;4987781;28;20148;-61
2022/01/17 10:42:50;;;;;;;5.32;1.60;;;6.80;99.90;;;;;;4989610;28;20461;-61
2022/01/17 10:45:18;;;;;;;;;;;6.90;99.90;;;;;;4990875;28;20186;-61
2022/01/17 10:47:45;;;;;;;6.35;1.95;;;7.00;99.90;;;;;;4989190;28;19917;-61
2022/01/17 10:50:14;;;;;;;9.75;2.53;;;7.00;99.90;;;;;;4985388;28;20022;-61
2022/01/17 10:52:43;;;;;;;8.73;3.33;;;7.10;99.90;;;;;;4994220;28;20391;-62
2022/01/17 10:55:09;;;;;;;8.57;2.55;;;7.00;99.90;;;;;;4991493;28;20037;-62
2022/01/17 10:57:36;;;;;;;9.23;2.72;;;7.10;99.90;;;;;;4991292;28;20101;-60
2022/01/17 11:00:08;;;;;;;7.88;3.20;;;7.00;99.90;;;;;;4998097;28;20065;-61
2022/01/17 11:02:36;;;;;;;7.97;2.00;;;7.00;99.90;;;;;;4993904;28;20510;-60
2022/01/17 11:05:04;;;;;;;6.95;1.85;;;7.00;99.90;;;;;;4998785;28;20029;-61
2022/01/17 11:07:30;;;;;;;8.65;2.42;;;7.00;99.90;;;;;;4994367;28;20392;-61
2022/01/17 11:10:00;;;;;;;14.32;3.15;;;7.10;99.90;;;;;;4997657;28;20037;-62
2022/01/17 11:12:28;;;;;;;9.00;2.40;;;7.10;99.90;;;;;;4992584;28;20049;-61
2022/01/17 11:14:56;;;;;;;11.27;3.85;;;7.10;99.90;;;;;;4999602;28;20573;-61
2022/01/17 11:17:34;;;;;;;9.68;2.67;;;7.10;99.90;;;;;;4996538;28;20034;-61
2022/01/17 11:20:07;;;;;;;14.25;3.28;;;7.10;99.90;;;;;;4998414;28;20029;-61
2022/01/17 11:22:37;;;;;;;8.75;2.55;;;7.10;99.90;;;;;;4992135;28;20027;-62
2022/01/17 11:25:10;;;;;;;12.88;3.58;;;7.10;99.90;;;;;;4995924;28;20395;-62
2022/01/17 11:27:36;;;;;;;8.00;2.72;;;7.20;99.90;;;;;;4994641;28;20037;-61
2022/01/17 11:30:03;;;;;;;5.57;2.00;;;7.20;99.90;;;;;;4996520;28;20171;-60
2022/01/17 11:32:29;;;;;;;9.40;2.90;;;7.20;99.90;;;;;;4987196;28;20033;-61
2022/01/17 11:34:57;;;;;;;10.88;2.67;;;7.30;99.90;;;;;;4997881;28;20596;-62
2022/01/17 11:37:25;;;;;;;15.77;3.92;;;7.30;99.90;;;;;;4998027;28;20038;-62
2022/01/17 11:39:53;;;;;;;17.50;4.60;;;7.30;99.90;;;;;;4995169;28;20364;-62
2022/01/17 11:42:35;;;;;;;10.85;3.30;;;7.30;99.90;;;;;;4995811;28;20029;-62
2022/01/17 11:45:22;;;;;;;11.88;3.35;;;7.40;99.90;;;;;;5000988;28;20023;-60
2022/01/17 11:48:04;;;;;;;11.68;3.15;;;7.40;99.90;;;;;;4992719;28;20029;-62
2022/01/17 11:50:32;;;;;;;14.07;3.33;;;7.40;99.90;;;;;;4992509;28;20152;-61
2022/01/17 11:53:00;;;;;;;20.45;3.55;;;7.40;99.90;;;;;;4993616;28;20511;-62
2022/01/17 11:55:44;;;;;;;18.92;4.68;;;7.50;99.90;;;;;;4993257;28;20044;-61
2022/01/17 11:58:25;;;;;;;12.68;3.30;;;7.50;99.90;;;;;;4992939;28;20326;-61
2022/01/17 12:00:59;;;;;;;11.77;2.58;;;7.60;99.90;;;;;;4990356;28;20052;-64
2022/01/17 12:03:51;;;;;;;15.02;3.28;;;7.60;99.90;;;;;;4995734;28;20031;-61
2022/01/17 12:06:20;;;;;;;16.42;3.20;;;7.60;99.90;;;;;;4996872;28;20033;-62
2022/01/17 12:08:46;;;;;;;10.30;2.95;;;7.60;99.90;;;;;;4998141;28;20033;-61
2022/01/17 12:11:28;;;;;;;9.57;4.00;;;7.50;99.90;;;;;;4997293;28;20054;-62
2022/01/17 12:13:59;;;;;;;9.23;2.80;;;7.50;99.90;;;;;;4994537;28;20441;-62
2022/01/17 12:16:27;;;;;;;9.65;2.58;;;7.50;99.90;;;;;;4990663;28;20064;-62
2022/01/17 12:18:54;;;;;;;7.63;2.40;;;7.40;99.90;;;;;;4991015;28;20042;-61
2022/01/17 12:21:24;;;;;;;7.05;3.28;;;7.40;99.90;;;;;;4995400;28;20034;-61
2022/01/17 12:24:11;;;;;;;9.93;3.10;;;7.40;99.90;;;;;;4994942;28;20129;-61
2022/01/17 12:26:36;;;;;;;11.77;4.00;;;7.30;99.90;;;;;;4997427;28;20034;-60
2022/01/17 12:29:02;;;;;;;;;;;7.30;99.90;;;;;;4992224;28;20431;-63
2022/01/17 12:31:41;;;;;;;6.90;2.60;;;7.30;99.90;;;;;;4995822;28;19914;-62
2022/01/17 12:34:18;;;;;;;5.88;2.33;;;7.30;99.90;;;;;;4994081;28;20050;-62
2022/01/17 12:36:46;;;;;;;3.92;1.20;;;7.30;99.90;;;;;;4994470;28;20057;-61
2022/01/17 12:39:21;;;;;;;8.70;1.83;;;7.30;99.90;;;;;;4996818;28;20030;-62
2022/01/17 12:41:49;;;;;;;2.80;0.85;;;7.40;99.90;;;;;;4994365;28;20046;-61
2022/01/17 12:44:20;;;;;;;2.58;0.60;;;7.40;99.90;;;;;;4995267;28;20033;-61
2022/01/17 12:46:56;;;;;;;3.55;1.13;;;7.50;99.90;;;;;;4997904;28;20029;-61
2022/01/17 12:49:22;;;;;;;3.15;0.75;;;7.50;99.90;;;;;;4992414;28;20394;-61
2022/01/17 12:51:50;;;;;;;5.30;0.95;;;7.50;99.90;;;;;;4996431;28;20139;-61
2022/01/17 12:54:25;;;;;;;4.85;1.50;;;7.60;99.90;;;;;;4995887;28;20503;-60
2022/01/17 12:56:53;;;;;;;4.43;1.40;;;7.70;99.90;;;;;;4993552;28;20037;-61
2022/01/17 12:59:20;;;;;;;5.25;1.00;;;7.70;99.90;;;;;;4991981;28;20479;-61
2022/01/17 13:01:52;;;;;;;5.75;1.40;;;7.70;99.90;;;;;;4993681;28;20456;-61
2022/01/17 13:04:19;;;;;;;5.78;1.13;;;7.60;99.90;;;;;;4991633;28;20049;-61
2022/01/17 13:06:47;;;;;;;8.00;1.45;;;7.50;99.90;;;;;;4992445;28;20612;-60
2022/01/17 13:09:21;;;;;;;10.90;1.65;;;7.30;99.90;;;;;;4993386;28;20022;-62
2022/01/17 13:11:48;;;;;;;7.95;2.40;;;7.20;99.90;;;;;;4995755;28;20040;-62
2022/01/17 13:14:17;;;;;;;8.32;1.27;;;7.20;99.90;;;;;;4997868;28;20069;-62
2022/01/17 13:16:43;;;;;;;4.10;1.40;;;7.20;99.90;;;;;;4993380;28;20116;-62
2022/01/17 13:19:11;;;;;;;10.68;1.45;;;7.30;99.90;;;;;;4992958;28;20061;-61
2022/01/17 13:21:40;;;;;;;11.85;1.83;;;7.20;99.90;;;;;;4994972;28;20034;-62
2022/01/17 13:24:20;;;;;;;7.25;2.35;;;7.20;99.90;;;;;;4994779;28;20031;-62
2022/01/17 13:26:56;;;;;;;8.45;2.35;;;7.20;99.90;;;;;;4996075;28;20026;-62